Time;durP1;ratioP1;P1;durP2;ratioP2;P2;SDS_P1;SDS_P2;PMS_P1;PMS_P2;Temp;Humidity;BMP_temperature;BMP_pressure;BME280_temperature;BME280_humidity;BME280_pressure;Samples;Min_cycle;Max_cycle;Signal;HPM_P1;HPM_P2
2022/04/19 00:00:35;;;;;;;4.45;3.00;;;;;;;;;;5031622;28;20515;-64
2022/04/19 00:03:04;;;;;;;3.70;3.00;;;;;;;;;;5030690;28;20059;-65
2022/04/19 00:05:34;;;;;;;5.70;3.33;;;;;;;;;;5031810;28;20045;-64
2022/04/19 00:08:00;;;;;;;4.85;3.50;;;;;;;;;;5031730;28;20510;-65
2022/04/19 00:10:28;;;;;;;2.83;2.30;;;;;;;;;;5031807;28;20049;-65
2022/04/19 00:12:56;;;;;;;4.50;2.95;;;;;;;;;;5031485;28;20053;-65
2022/04/19 00:15:29;;;;;;;5.15;3.40;;;;;;;;;;5030097;28;20045;-65
2022/04/19 00:17:57;;;;;;;3.70;3.17;;;;;;;;;;5031632;28;20496;-64
2022/04/19 00:20:24;;;;;;;3.42;2.88;;;;;;;;;;5030227;28;20303;-64
2022/04/19 00:22:52;;;;;;;4.25;2.92;;;;;;;;;;5031621;28;20056;-65
2022/04/19 00:25:19;;;;;;;4.13;2.88;;;;;;;;;;5031677;28;20412;-65
2022/04/19 00:27:45;;;;;;;3.97;2.70;;;;;;;;;;5031631;28;20050;-64
2022/04/19 00:30:12;;;;;;;5.22;2.83;;;;;;;;;;5031289;28;20387;-64
2022/04/19 00:32:39;;;;;;;3.55;2.78;;;;;;;;;;5032756;28;20053;-64
2022/04/19 00:35:08;;;;;;;4.00;2.95;;;;;;;;;;5035102;28;20069;-64
2022/04/19 00:37:35;;;;;;;4.03;2.95;;;;;;;;;;5035356;28;20053;-64
2022/04/19 00:40:03;;;;;;;3.03;2.47;;;;;;;;;;5035212;28;20057;-64
2022/04/19 00:42:31;;;;;;;4.68;2.90;;;;;;;;;;5034917;28;20063;-64
2022/04/19 00:44:59;;;;;;;4.10;2.97;;;;;;;;;;5034940;28;20042;-64
2022/04/19 00:47:26;;;;;;;5.82;2.85;;;;;;;;;;5034882;28;20055;-64
2022/04/19 00:49:53;;;;;;;4.10;3.22;;;;;;;;;;5034795;28;20053;-65
2022/04/19 00:52:19;;;;;;;5.85;3.00;;;;;;;;;;5035474;28;20059;-65
2022/04/19 00:54:49;;;;;;;4.28;2.60;;;;;;;;;;5034662;28;20136;-64
2022/04/19 00:57:15;;;;;;;3.92;3.15;;;;;;;;;;5034827;28;20060;-65
2022/04/19 00:59:42;;;;;;;3.70;2.63;;;;;;;;;;5033568;28;20049;-65
2022/04/19 01:02:08;;;;;;;4.53;2.83;;;;;;;;;;5033353;28;20061;-64
2022/04/19 01:04:35;;;;;;;4.40;2.78;;;;;;;;;;5033478;28;20492;-65
2022/04/19 01:07:02;;;;;;;4.68;2.60;;;;;;;;;;5034643;28;20050;-64
2022/04/19 01:09:29;;;;;;;4.35;2.63;;;;;;;;;;5033404;28;20053;-64
2022/04/19 01:14:40;;;;;;;4.32;3.00;;;;;;;;;;5019519;28;20052;-64
2022/04/19 01:17:07;;;;;;;3.13;2.83;;;;;;;;;;5033379;28;20049;-64
2022/04/19 01:19:38;;;;;;;7.03;3.15;;;;;;;;;;5016915;28;20140;-64
2022/04/19 01:22:06;;;;;;;3.88;2.63;;;;;;;;;;5034363;28;20049;-64
2022/04/19 01:24:32;;;;;;;6.30;3.33;;;;;;;;;;5034159;28;20089;-64
2022/04/19 01:26:59;;;;;;;4.38;3.28;;;;;;;;;;5034103;28;20424;-64
2022/04/19 01:29:27;;;;;;;6.80;3.20;;;;;;;;;;5034249;28;20084;-65
2022/04/19 01:31:53;;;;;;;6.50;4.00;;;;;;;;;;5033722;28;20051;-65
2022/04/19 01:34:20;;;;;;;4.28;3.40;;;;;;;;;;5034733;28;20053;-66
2022/04/19 01:36:47;;;;;;;5.25;3.00;;;;;;;;;;5034889;28;20060;-65
2022/04/19 01:39:13;;;;;;;5.35;3.55;;;;;;;;;;5034456;28;20084;-66
2022/04/19 01:41:40;;;;;;;4.80;2.90;;;;;;;;;;5034568;28;20057;-66
2022/04/19 01:44:07;;;;;;;4.78;3.40;;;;;;;;;;5034108;28;20111;-65
2022/04/19 01:46:34;;;;;;;3.58;3.15;;;;;;;;;;5034455;28;20076;-65
2022/04/19 01:49:02;;;;;;;4.60;3.25;;;;;;;;;;5034444;28;20053;-66
2022/04/19 01:51:29;;;;;;;5.28;2.95;;;;;;;;;;5034100;28;20053;-64
2022/04/19 01:53:55;;;;;;;4.47;3.13;;;;;;;;;;5033919;28;20046;-65
2022/04/19 01:56:22;;;;;;;4.63;3.38;;;;;;;;;;5033764;28;20064;-65
2022/04/19 01:58:49;;;;;;;3.47;2.83;;;;;;;;;;5034047;28;20058;-65
2022/04/19 02:01:15;;;;;;;4.38;3.63;;;;;;;;;;5033777;28;20119;-65
2022/04/19 02:03:42;;;;;;;5.95;3.85;;;;;;;;;;5034042;28;20060;-66
2022/04/19 02:06:10;;;;;;;7.63;3.20;;;;;;;;;;5034039;28;20050;-65
2022/04/19 02:08:37;;;;;;;3.97;3.25;;;;;;;;;;5033432;28;20061;-65
2022/04/19 02:11:04;;;;;;;5.15;3.20;;;;;;;;;;5033215;28;20060;-65
2022/04/19 02:13:31;;;;;;;7.70;3.15;;;;;;;;;;5033808;28;20061;-66
2022/04/19 02:16:00;;;;;;;4.88;3.28;;;;;;;;;;5034054;28;20427;-66
2022/04/19 02:18:27;;;;;;;7.50;3.90;;;;;;;;;;5033482;28;20050;-66
2022/04/19 02:20:54;;;;;;;5.95;2.92;;;;;;;;;;5033042;28;20195;-65
2022/04/19 02:23:20;;;;;;;3.63;2.88;;;;;;;;;;5032889;28;20060;-65
2022/04/19 02:25:51;;;;;;;5.07;3.13;;;;;;;;;;5032776;28;20557;-65
2022/04/19 02:28:17;;;;;;;5.15;3.22;;;;;;;;;;5033263;28;20049;-65
2022/04/19 02:30:46;;;;;;;4.28;2.63;;;;;;;;;;5032806;28;20053;-66
2022/04/19 02:33:12;;;;;;;6.28;3.08;;;;;;;;;;5032885;28;20061;-65
2022/04/19 02:35:40;;;;;;;5.65;3.28;;;;;;;;;;5032685;28;20045;-66
2022/04/19 02:38:06;;;;;;;4.68;3.22;;;;;;;;;;5032799;28;20092;-65
2022/04/19 02:40:33;;;;;;;5.18;3.00;;;;;;;;;;5032629;28;20054;-66
2022/04/19 02:43:00;;;;;;;4.38;3.22;;;;;;;;;;5032942;28;20496;-65
2022/04/19 02:45:26;;;;;;;3.63;2.92;;;;;;;;;;5031329;28;20053;-65
2022/04/19 02:48:06;;;;;;;5.43;3.05;;;;;;;;;;5032856;28;20049;-65
2022/04/19 02:50:39;;;;;;;5.50;3.13;;;;;;;;;;5032282;28;20100;-65
2022/04/19 02:53:05;;;;;;;5.43;3.15;;;;;;;;;;5032511;28;20098;-65
2022/04/19 02:55:32;;;;;;;3.70;2.80;;;;;;;;;;5032011;28;20462;-66
2022/04/19 02:57:59;;;;;;;5.53;3.20;;;;;;;;;;5032628;28;20057;-65
2022/04/19 03:00:25;;;;;;;5.05;3.45;;;;;;;;;;5032314;28;20103;-65
2022/04/19 03:02:52;;;;;;;5.30;2.80;;;;;;;;;;5032153;28;20492;-65
2022/04/19 03:05:19;;;;;;;5.63;3.03;;;;;;;;;;5032349;28;20046;-65
2022/04/19 03:07:46;;;;;;;4.32;3.17;;;;;;;;;;5032606;28;20486;-65
2022/04/19 03:10:14;;;;;;;3.80;3.25;;;;;;;;;;5032136;28;20140;-65
2022/04/19 03:12:41;;;;;;;8.18;3.90;;;;;;;;;;5032081;28;20061;-65
2022/04/19 03:15:11;;;;;;;4.97;3.65;;;;;;;;;;5031990;28;20175;-66
2022/04/19 03:17:38;;;;;;;5.65;3.85;;;;;;;;;;5032564;28;20107;-67
2022/04/19 03:20:08;;;;;;;4.28;3.33;;;;;;;;;;5030988;28;20061;-67
2022/04/19 03:28:06;;;;;;;6.63;3.35;;;;;;;;;;5031951;28;20056;-65
2022/04/19 03:30:33;;;;;;;6.90;4.20;;;;;;;;;;5032007;28;20053;-65
2022/04/19 03:32:59;;;;;;;6.43;3.53;;;;;;;;;;5030853;28;20076;-66
2022/04/19 03:35:26;;;;;;;6.82;3.90;;;;;;;;;;5031940;28;20049;-65
2022/04/19 03:37:53;;;;;;;5.63;3.28;;;;;;;;;;5031817;28;20049;-65
2022/04/19 03:40:19;;;;;;;4.68;3.58;;;;;;;;;;5031692;28;20045;-64
2022/04/19 03:42:46;;;;;;;5.15;3.17;;;;;;;;;;5031872;28;20057;-65
2022/04/19 03:45:12;;;;;;;4.55;3.63;;;;;;;;;;5031880;28;20061;-64
2022/04/19 03:47:39;;;;;;;4.00;3.00;;;;;;;;;;5031804;28;20098;-66
2022/04/19 03:50:06;;;;;;;5.32;3.28;;;;;;;;;;5031861;28;20049;-65
2022/04/19 03:52:34;;;;;;;6.63;4.03;;;;;;;;;;5030408;28;20050;-65
2022/04/19 03:55:02;;;;;;;7.75;3.25;;;;;;;;;;5031448;28;20050;-65
2022/04/19 03:57:29;;;;;;;5.30;3.50;;;;;;;;;;5031701;28;20046;-65
2022/04/19 03:59:55;;;;;;;4.65;3.35;;;;;;;;;;5031793;28;20108;-64
2022/04/19 04:02:22;;;;;;;5.97;4.53;;;;;;;;;;5031420;28;20522;-65
2022/04/19 04:04:48;;;;;;;5.13;3.67;;;;;;;;;;5031557;28;20049;-65
2022/04/19 04:07:15;;;;;;;4.65;3.17;;;;;;;;;;5033805;28;20049;-66
2022/04/19 04:09:42;;;;;;;6.55;3.42;;;;;;;;;;5035494;28;20049;-65
2022/04/19 04:12:10;;;;;;;5.15;3.50;;;;;;;;;;5035518;28;20072;-66
2022/04/19 04:14:41;;;;;;;4.55;3.38;;;;;;;;;;5035207;28;20059;-66
2022/04/19 04:17:08;;;;;;;4.57;3.45;;;;;;;;;;5034680;28;20046;-65
2022/04/19 04:19:35;;;;;;;6.07;3.45;;;;;;;;;;5035844;28;20056;-65
2022/04/19 04:22:02;;;;;;;4.35;3.65;;;;;;;;;;5035249;28;20057;-66
2022/04/19 04:24:29;;;;;;;3.50;3.03;;;;;;;;;;5057560;23;20049;-64
2022/04/19 04:26:55;;;;;;;4.95;3.35;;;;;;;;;;4995255;28;20116;-65
2022/04/19 04:29:22;;;;;;;4.47;3.35;;;;;;;;;;4995916;28;20104;-64
2022/04/19 04:31:48;;;;;;;4.78;3.25;;;;;;;;;;4995602;28;20050;-65
2022/04/19 04:34:15;;;;;;;7.07;3.53;;;;;;;;;;4995801;28;20054;-66
2022/04/19 04:36:42;;;;;;;3.75;3.10;;;;;;;;;;4995910;28;20053;-65
2022/04/19 04:39:08;;;;;;;4.20;3.20;;;;;;;;;;4994886;28;20050;-64
2022/04/19 04:41:35;;;;;;;6.53;3.15;;;;;;;;;;4995619;28;20058;-64
2022/04/19 04:44:01;;;;;;;5.03;3.33;;;;;;;;;;4995534;28;20443;-65
2022/04/19 04:51:58;;;;;;;5.68;2.92;;;;;;;;;;4995473;28;20054;-64
2022/04/19 04:54:25;;;;;;;6.75;3.55;;;;;;;;;;4995325;28;20101;-65
2022/04/19 04:56:52;;;;;;;5.35;3.78;;;;;;;;;;4995378;28;20112;-65
2022/04/19 04:59:19;;;;;;;5.57;3.30;;;;;;;;;;4995356;28;20046;-65
2022/04/19 05:01:45;;;;;;;4.47;3.08;;;;;;;;;;4992988;28;20074;-65
2022/04/19 05:04:12;;;;;;;9.20;3.83;;;;;;;;;;4981043;28;20489;-65
2022/04/19 05:06:40;;;;;;;9.38;4.97;;;;;;;;;;4991172;28;20054;-64
2022/04/19 05:09:06;;;;;;;7.25;4.00;;;;;;;;;;4995385;28;20065;-65
2022/04/19 05:11:33;;;;;;;5.30;4.00;;;;;;;;;;4994717;28;20129;-65
2022/04/19 05:14:00;;;;;;;7.35;3.80;;;;;;;;;;4994769;28;20046;-65
2022/04/19 05:16:28;;;;;;;8.57;4.22;;;;;;;;;;4994514;28;20050;-65
2022/04/19 05:18:55;;;;;;;7.97;4.30;;;;;;;;;;4994248;28;20473;-65
2022/04/19 05:21:22;;;;;;;5.53;3.95;;;;;;;;;;4994873;28;20066;-64
2022/04/19 05:23:48;;;;;;;6.80;4.00;;;;;;;;;;4995014;28;20054;-65
2022/04/19 05:26:15;;;;;;;7.53;4.22;;;;;;;;;;4994576;28;20288;-65
2022/04/19 05:28:41;;;;;;;12.43;3.75;;;;;;;;;;4994903;28;20050;-64
2022/04/19 05:31:08;;;;;;;4.80;3.38;;;;;;;;;;4994557;28;20563;-65
2022/04/19 05:33:35;;;;;;;5.45;3.53;;;;;;;;;;4994664;28;20065;-64
2022/04/19 05:36:01;;;;;;;8.55;3.78;;;;;;;;;;4994375;28;20472;-65
2022/04/19 05:38:28;;;;;;;7.90;3.97;;;;;;;;;;4994745;28;20132;-65
2022/04/19 05:40:56;;;;;;;7.50;4.07;;;;;;;;;;4994361;28;20058;-64
2022/04/19 05:43:23;;;;;;;5.82;3.95;;;;;;;;;;4994193;28;20096;-65
2022/04/19 05:45:49;;;;;;;5.20;3.67;;;;;;;;;;4994402;28;20050;-65
2022/04/19 05:48:16;;;;;;;6.32;3.40;;;;;;;;;;4994500;28;20046;-65
2022/04/19 05:50:43;;;;;;;5.82;3.75;;;;;;;;;;4994062;28;20050;-65
2022/04/19 05:53:11;;;;;;;5.45;3.78;;;;;;;;;;4992984;28;20089;-65
2022/04/19 05:55:37;;;;;;;8.05;3.30;;;;;;;;;;4994156;28;20047;-65
2022/04/19 05:58:04;;;;;;;8.90;3.67;;;;;;;;;;4994096;28;20058;-65
2022/04/19 06:00:31;;;;;;;7.82;4.05;;;;;;;;;;4994282;28;20463;-65
2022/04/19 06:05:44;;;;;;;4.28;3.13;;;;;;;;;;4994001;28;20065;-64
2022/04/19 06:08:11;;;;;;;6.70;3.25;;;;;;;;;;4993924;28;20509;-65
2022/04/19 06:10:38;;;;;;;4.68;3.05;;;;;;;;;;4994313;28;20136;-65
2022/04/19 06:13:05;;;;;;;6.43;3.13;;;;;;;;;;4993566;28;20061;-64
2022/04/19 06:15:31;;;;;;;4.65;3.30;;;;;;;;;;4993731;28;20054;-65
2022/04/19 06:17:58;;;;;;;5.10;3.47;;;;;;;;;;4993957;28;20054;-64
2022/04/19 06:20:25;;;;;;;8.23;3.05;;;;;;;;;;4993734;28;20062;-65
2022/04/19 06:22:52;;;;;;;6.75;3.60;;;;;;;;;;4993582;28;20050;-65
2022/04/19 06:25:19;;;;;;;6.55;3.22;;;;;;;;;;4993455;28;20058;-64
2022/04/19 06:27:45;;;;;;;3.97;2.90;;;;;;;;;;4990742;28;20062;-65
2022/04/19 06:30:12;;;;;;;4.80;3.03;;;;;;;;;;4979751;28;20056;-68
2022/04/19 06:32:40;;;;;;;5.30;3.55;;;;;;;;;;4985646;28;20402;-64
2022/04/19 06:35:08;;;;;;;3.97;3.13;;;;;;;;;;4976745;28;20261;-65
2022/04/19 06:37:36;;;;;;;6.32;3.15;;;;;;;;;;4978551;28;20054;-66
2022/04/19 06:40:06;;;;;;;7.97;3.05;;;;;;;;;;4984443;28;20133;-65
2022/04/19 06:42:33;;;;;;;4.43;3.13;;;;;;;;;;4978364;28;20112;-66
2022/04/19 06:45:01;;;;;;;4.13;3.45;;;;;;;;;;4977159;28;20101;-66
2022/04/19 06:47:28;;;;;;;5.45;3.50;;;;;;;;;;4986200;28;20039;-65
2022/04/19 06:49:57;;;;;;;6.40;3.38;;;;;;;;;;4979162;28;20054;-65
2022/04/19 06:52:24;;;;;;;8.40;3.65;;;;;;;;;;4977811;28;20051;-66
2022/04/19 06:54:51;;;;;;;5.75;3.47;;;;;;;;;;4978208;28;20050;-65
2022/04/19 06:57:18;;;;;;;5.20;3.28;;;;;;;;;;4977726;28;20098;-65
2022/04/19 06:59:45;;;;;;;5.03;4.03;;;;;;;;;;4981091;28;20066;-65
2022/04/19 07:02:12;;;;;;;8.27;4.57;;;;;;;;;;4979795;28;20055;-65
2022/04/19 07:04:41;;;;;;;5.63;3.65;;;;;;;;;;4982848;28;20086;-65
2022/04/19 07:07:07;;;;;;;9.77;4.22;;;;;;;;;;4983009;28;20046;-66
2022/04/19 07:09:34;;;;;;;6.35;3.97;;;;;;;;;;4979944;28;20475;-66
2022/04/19 07:12:01;;;;;;;5.38;3.92;;;;;;;;;;4985344;28;20054;-66
2022/04/19 07:14:28;;;;;;;6.70;4.00;;;;;;;;;;4985204;28;20273;-65
2022/04/19 07:16:55;;;;;;;8.23;4.20;;;;;;;;;;4977315;28;20050;-65
2022/04/19 07:19:21;;;;;;;5.65;4.03;;;;;;;;;;4981438;28;20420;-66
2022/04/19 07:27:21;;;;;;;4.88;4.00;;;;;;;;;;4976924;28;20042;-76
2022/04/19 07:29:48;;;;;;;7.20;3.95;;;;;;;;;;4978339;28;20420;-73
2022/04/19 07:32:15;;;;;;;5.82;4.18;;;;;;;;;;4982966;28;20047;-77
2022/04/19 07:34:42;;;;;;;4.85;3.20;;;;;;;;;;4982154;28;20129;-75
2022/04/19 07:37:08;;;;;;;5.47;3.92;;;;;;;;;;4978200;28;20057;-73
2022/04/19 07:39:35;;;;;;;3.63;3.30;;;;;;;;;;4979652;28;20061;-75
2022/04/19 07:42:13;;;;;;;7.28;3.90;;;;;;;;;;4978673;28;20050;-80
2022/04/19 07:44:44;;;;;;;5.93;3.42;;;;;;;;;;4983796;28;20101;-75
2022/04/19 07:47:14;;;;;;;5.75;3.72;;;;;;;;;;4979269;28;20054;-75
2022/04/19 07:49:40;;;;;;;4.15;3.33;;;;;;;;;;4981058;28;20054;-60
2022/04/19 07:52:07;;;;;;;4.55;3.70;;;;;;;;;;4976975;28;20121;-69
2022/04/19 07:54:35;;;;;;;5.07;3.45;;;;;;;;;;4979927;28;20055;-72
2022/04/19 07:57:02;;;;;;;6.10;4.03;;;;;;;;;;4980405;28;20049;-73
2022/04/19 07:59:29;;;;;;;7.32;3.80;;;;;;;;;;4979500;28;20054;-73
2022/04/19 08:01:55;;;;;;;6.80;4.05;;;;;;;;;;4951119;28;20522;-70
2022/04/19 08:04:22;;;;;;;4.70;3.53;;;;;;;;;;4959173;28;20051;-70
2022/04/19 08:06:49;;;;;;;7.72;3.70;;;;;;;;;;4960483;28;20047;-74
2022/04/19 08:09:16;;;;;;;6.00;3.30;;;;;;;;;;4979479;28;20063;-74
2022/04/19 08:11:48;;;;;;;5.70;3.75;;;;;;;;;;4960678;28;20048;-69
2022/04/19 08:14:15;;;;;;;7.18;4.10;;;;;;;;;;4961878;28;20102;-66
2022/04/19 08:16:42;;;;;;;4.72;3.65;;;;;;;;;;4958053;28;20511;-66
2022/04/19 08:19:09;;;;;;;6.43;3.70;;;;;;;;;;4961781;28;20047;-66
2022/04/19 08:21:35;;;;;;;7.20;4.07;;;;;;;;;;4960299;28;20502;-66
2022/04/19 08:24:02;;;;;;;6.85;3.95;;;;;;;;;;4960369;28;20062;-67
2022/04/19 08:26:30;;;;;;;5.07;3.38;;;;;;;;;;4957709;28;20047;-67
2022/04/19 08:28:56;;;;;;;6.82;4.00;;;;;;;;;;4960025;28;20114;-66
2022/04/19 08:31:23;;;;;;;6.90;4.68;;;;;;;;;;4959479;28;20119;-66
2022/04/19 08:33:49;;;;;;;7.43;3.58;;;;;;;;;;4959459;28;20093;-67
2022/04/19 08:36:16;;;;;;;7.85;3.90;;;;;;;;;;4958200;28;20082;-67
2022/04/19 08:38:43;;;;;;;6.13;3.88;;;;;;;;;;4961296;28;20047;-67
2022/04/19 08:41:10;;;;;;;5.18;3.95;;;;;;;;;;4959780;28;20523;-67
2022/04/19 08:43:38;;;;;;;6.60;4.20;;;;;;;;;;4958343;28;20123;-67
2022/04/19 08:46:05;;;;;;;9.95;4.55;;;;;;;;;;4959644;28;20102;-67
2022/04/19 08:48:32;;;;;;;11.07;6.30;;;;;;;;;;4958634;28;20109;-67
2022/04/19 08:50:58;;;;;;;8.02;4.88;;;;;;;;;;4960078;28;20051;-67
2022/04/19 08:58:55;;;;;;;6.28;3.92;;;;;;;;;;4968289;28;20042;-76
2022/04/19 09:01:22;;;;;;;7.10;3.50;;;;;;;;;;4960473;28;20065;-75
2022/04/19 09:03:50;;;;;;;5.55;3.75;;;;;;;;;;4960502;28;20445;-74
2022/04/19 09:06:17;;;;;;;6.40;3.95;;;;;;;;;;4961734;28;20055;-74
2022/04/19 09:09:07;;;;;;;7.03;3.92;;;;;;;;;;4939324;28;20085;-68
2022/04/19 09:11:34;;;;;;;6.95;4.22;;;;;;;;;;4983108;28;20050;-66
2022/04/19 09:14:07;;;;;;;5.15;3.70;;;;;;;;;;4980578;28;20054;-67
2022/04/19 09:16:34;;;;;;;6.45;4.05;;;;;;;;;;4980039;28;20054;-67
2022/04/19 09:19:01;;;;;;;5.85;3.17;;;;;;;;;;4980286;28;20046;-66
2022/04/19 09:21:40;;;;;;;4.10;2.97;;;;;;;;;;4979456;28;20593;-67
2022/04/19 09:24:20;;;;;;;5.55;3.38;;;;;;;;;;4983289;28;20507;-66
2022/04/19 09:26:50;;;;;;;8.48;4.13;;;;;;;;;;4982727;28;20047;-66
2022/04/19 09:29:18;;;;;;;9.52;3.95;;;;;;;;;;4983552;28;20050;-66
2022/04/19 09:31:45;;;;;;;5.18;3.28;;;;;;;;;;4982638;28;20077;-66
2022/04/19 09:34:30;;;;;;;5.35;3.45;;;;;;;;;;4982274;28;20047;-66
2022/04/19 09:37:10;;;;;;;5.70;3.10;;;;;;;;;;4979464;28;20058;-66
2022/04/19 09:39:38;;;;;;;4.15;2.95;;;;;;;;;;4984283;28;20054;-66
2022/04/19 09:42:14;;;;;;;4.15;3.20;;;;;;;;;;4980559;28;20097;-66
2022/04/19 09:44:44;;;;;;;7.57;3.33;;;;;;;;;;4983094;28;20403;-66
2022/04/19 09:47:12;;;;;;;5.90;3.22;;;;;;;;;;4979542;28;20038;-67
2022/04/19 09:49:50;;;;;;;6.60;4.15;;;;;;;;;;4996122;28;20063;-67
2022/04/19 09:52:22;;;;;;;5.70;3.03;;;;;;;;;;4984067;28;20113;-67
2022/04/19 09:55:04;;;;;;;4.85;2.85;;;;;;;;;;4984315;28;20066;-66
2022/04/19 09:57:32;;;;;;;8.02;3.20;;;;;;;;;;4980255;28;20053;-67
2022/04/19 09:59:59;;;;;;;6.78;3.17;;;;;;;;;;4984182;28;20057;-67
2022/04/19 10:08:13;;;;;;;5.28;2.92;;;;;;;;;;4979883;28;20062;-66
2022/04/19 10:10:40;;;;;;;;;;;;;;;;;;4981650;28;20053;-67
2022/04/19 10:13:07;;;;;;;3.95;2.58;;;;;;;;;;4980928;28;20359;-66
2022/04/19 10:15:35;;;;;;;5.35;3.20;;;;;;;;;;4979493;28;20568;-67
2022/04/19 10:18:06;;;;;;;4.93;2.63;;;;;;;;;;4976758;28;20054;-76
2022/04/19 10:20:41;;;;;;;6.50;3.33;;;;;;;;;;4983735;28;20046;-73
2022/04/19 10:23:09;;;;;;;4.07;3.03;;;;;;;;;;4982702;28;20085;-74
2022/04/19 10:25:40;;;;;;;7.60;3.55;;;;;;;;;;4982432;28;20114;-66
2022/04/19 10:28:08;;;;;;;4.38;3.35;;;;;;;;;;4976060;28;20052;-66
2022/04/19 10:30:39;;;;;;;5.53;3.50;;;;;;;;;;4979441;28;20420;-66
2022/04/19 10:33:50;;;;;;;4.45;3.47;;;;;;;;;;4976689;28;20541;-66
2022/04/19 10:36:22;;;;;;;6.38;3.65;;;;;;;;;;4978265;28;20066;-66
2022/04/19 10:39:14;;;;;;;8.30;4.57;;;;;;;;;;4976644;28;20059;-66
2022/04/19 10:41:53;;;;;;;4.28;3.35;;;;;;;;;;4979622;28;20054;-66
2022/04/19 10:44:30;;;;;;;4.90;3.03;;;;;;;;;;4978638;28;20046;-66
2022/04/19 10:47:13;;;;;;;4.68;3.10;;;;;;;;;;4978292;28;20125;-66
2022/04/19 10:49:47;;;;;;;5.00;3.25;;;;;;;;;;4980106;28;20058;-66
2022/04/19 10:52:36;;;;;;;5.70;3.90;;;;;;;;;;4980084;28;20053;-66
2022/04/19 10:55:09;;;;;;;5.57;3.63;;;;;;;;;;4979624;28;20051;-66
2022/04/19 11:00:35;;;;;;;4.03;3.20;;;;;;;;;;4980729;28;20055;-66
2022/04/19 11:03:37;;;;;;;5.40;3.90;;;;;;;;;;4977855;28;20057;-67
2022/04/19 11:06:05;;;;;;;6.18;3.08;;;;;;;;;;4976450;28;20497;-67
2022/04/19 11:08:36;;;;;;;5.10;2.88;;;;;;;;;;4979046;28;20416;-67
2022/04/19 11:11:02;;;;;;;5.00;2.60;;;;;;;;;;4986845;28;20065;-67
2022/04/19 11:13:36;;;;;;;5.45;3.33;;;;;;;;;;4990139;28;20050;-68
2022/04/19 11:16:06;;;;;;;4.60;3.65;;;;;;;;;;4984525;28;20091;-74
2022/04/19 11:18:39;;;;;;;5.20;3.25;;;;;;;;;;4979306;28;20223;-71
2022/04/19 11:21:46;;;;;;;7.70;3.88;;;;;;;;;;4975561;28;20041;-77
2022/04/19 11:24:52;;;;;;;6.57;3.95;;;;;;;;;;4987664;28;20042;-75
2022/04/19 11:27:53;;;;;;;6.80;4.38;;;;;;;;;;4986913;28;20406;-78
2022/04/19 11:30:55;;;;;;;4.53;3.75;;;;;;;;;;4987739;28;20085;-77
2022/04/19 11:46:44;;;;;;;4.85;3.70;;;;;;;;;;4977532;28;20056;-76
2022/04/19 11:49:25;;;;;;;4.70;3.25;;;;;;;;;;4979576;28;20054;-73
2022/04/19 11:52:11;;;;;;;4.63;3.50;;;;;;;;;;4977898;28;20054;-76
2022/04/19 11:54:39;;;;;;;4.57;3.75;;;;;;;;;;4964779;28;20050;-78
2022/04/19 11:57:10;;;;;;;5.18;3.53;;;;;;;;;;4995566;28;20043;-74
2022/04/19 11:59:38;;;;;;;7.88;4.75;;;;;;;;;;4981954;28;20082;-76
2022/04/19 12:02:30;;;;;;;6.80;5.10;;;;;;;;;;4994143;28;20130;-76
2022/04/19 12:05:02;;;;;;;7.53;3.95;;;;;;;;;;4964388;28;20134;-74
2022/04/19 12:07:29;;;;;;;5.43;4.43;;;;;;;;;;4993215;28;20098;-70
2022/04/19 12:09:57;;;;;;;5.25;4.15;;;;;;;;;;4979059;28;20042;-69
2022/04/19 12:12:24;;;;;;;24.98;14.85;;;;;;;;;;4993813;28;20054;-74
2022/04/19 12:14:53;;;;;;;10.88;7.32;;;;;;;;;;4963373;28;20101;-74
2022/04/19 12:17:23;;;;;;;7.05;4.22;;;;;;;;;;4978893;28;20053;-73
2022/04/19 12:19:59;;;;;;;6.10;4.40;;;;;;;;;;4981182;28;20046;-69
2022/04/19 12:22:26;;;;;;;6.68;4.22;;;;;;;;;;4982985;28;20457;-70
2022/04/19 12:24:58;;;;;;;5.53;4.10;;;;;;;;;;4977843;28;20051;-69
2022/04/19 12:27:39;;;;;;;6.22;4.18;;;;;;;;;;4980366;28;20046;-72
2022/04/19 12:30:15;;;;;;;8.25;5.22;;;;;;;;;;4986176;28;20409;-70
2022/04/19 12:32:55;;;;;;;5.53;4.75;;;;;;;;;;4987860;28;20133;-71
2022/04/19 12:35:26;;;;;;;7.63;3.80;;;;;;;;;;4985671;28;20439;-72
2022/04/19 12:38:36;;;;;;;6.00;3.53;;;;;;;;;;4981794;28;20417;-74
2022/04/19 12:41:02;;;;;;;5.25;3.92;;;;;;;;;;4985344;28;20537;-66
2022/04/19 12:43:42;;;;;;;10.02;4.05;;;;;;;;;;4966826;28;20489;-66
2022/04/19 12:46:08;;;;;;;4.85;3.33;;;;;;;;;;4981788;28;20047;-65
2022/04/19 12:48:35;;;;;;;5.07;4.18;;;;;;;;;;4980922;28;20160;-65
2022/04/19 12:51:03;;;;;;;5.55;3.85;;;;;;;;;;4981700;28;20054;-66
2022/04/19 12:53:36;;;;;;;6.88;5.07;;;;;;;;;;4983470;28;20051;-65
2022/04/19 12:56:11;;;;;;;8.20;5.38;;;;;;;;;;4983215;28;20155;-66
2022/04/19 12:58:46;;;;;;;7.53;4.65;;;;;;;;;;4981060;28;20055;-66
2022/04/19 13:01:13;;;;;;;5.03;3.75;;;;;;;;;;4983725;28;20054;-66
2022/04/19 13:03:40;;;;;;;5.95;4.95;;;;;;;;;;4983289;28;20052;-66
2022/04/19 13:14:22;;;;;;;7.53;4.65;;;;;;;;;;4985974;28;20062;-66
2022/04/19 13:16:48;;;;;;;5.30;3.72;;;;;;;;;;4982177;28;20046;-65
2022/04/19 13:19:15;;;;;;;4.85;3.72;;;;;;;;;;4982055;28;20074;-65
2022/04/19 13:21:42;;;;;;;5.05;3.88;;;;;;;;;;4980143;28;20102;-66
2022/04/19 13:24:08;;;;;;;5.68;3.83;;;;;;;;;;4984240;28;20051;-66
2022/04/19 13:26:35;;;;;;;5.20;3.90;;;;;;;;;;4980701;28;20054;-66
2022/04/19 13:29:06;;;;;;;5.60;3.40;;;;;;;;;;4981705;28;20046;-66
2022/04/19 13:31:33;;;;;;;4.22;3.50;;;;;;;;;;4980609;28;20510;-66
2022/04/19 13:34:01;;;;;;;4.70;3.15;;;;;;;;;;4984147;28;20050;-65
2022/04/19 13:36:28;;;;;;;4.68;3.03;;;;;;;;;;4980175;28;20105;-66
2022/04/19 13:38:55;;;;;;;4.75;3.20;;;;;;;;;;4981335;28;20508;-66
2022/04/19 13:41:22;;;;;;;4.93;3.30;;;;;;;;;;4981575;28;20051;-66
2022/04/19 13:43:48;;;;;;;6.60;3.63;;;;;;;;;;4984181;28;20395;-66
2022/04/19 13:46:15;;;;;;;4.38;3.70;;;;;;;;;;4982382;28;20388;-66
2022/04/19 13:48:42;;;;;;;3.55;3.00;;;;;;;;;;4980302;28;20512;-66
2022/04/19 13:51:08;;;;;;;4.00;2.10;;;;;;;;;;4984406;28;20148;-65
2022/04/19 13:53:35;;;;;;;4.00;1.70;;;;;;;;;;4979853;28;20113;-66
2022/04/19 13:56:02;;;;;;;2.67;1.98;;;;;;;;;;4979814;28;20047;-65
2022/04/19 13:58:29;;;;;;;2.50;2.30;;;;;;;;;;4980159;28;20046;-65
2022/04/19 14:00:55;;;;;;;3.20;2.60;;;;;;;;;;4981814;28;20093;-65
2022/04/19 14:03:22;;;;;;;2.47;2.15;;;;;;;;;;4983382;28;20061;-65
2022/04/19 14:05:53;;;;;;;4.65;2.45;;;;;;;;;;4982031;28;20054;-65
2022/04/19 14:08:20;;;;;;;3.92;2.28;;;;;;;;;;4994842;28;20074;-66
2022/04/19 14:10:47;;;;;;;2.72;2.15;;;;;;;;;;4984313;28;20457;-66
2022/04/19 14:13:13;;;;;;;3.55;1.85;;;;;;;;;;4982856;28;20065;-65
2022/04/19 14:15:40;;;;;;;2.67;2.13;;;;;;;;;;4981828;28;20504;-66
2022/04/19 14:18:07;;;;;;;3.97;1.80;;;;;;;;;;4980961;28;20501;-66
2022/04/19 14:20:33;;;;;;;2.55;1.73;;;;;;;;;;4980189;28;20494;-65
2022/04/19 14:23:00;;;;;;;6.82;2.20;;;;;;;;;;4981235;28;20046;-66
2022/04/19 14:25:27;;;;;;;2.53;2.20;;;;;;;;;;4979868;28;20276;-67
2022/04/19 14:27:53;;;;;;;2.55;2.20;;;;;;;;;;4981921;28;20038;-66
2022/04/19 14:33:15;;;;;;;2.05;1.95;;;;;;;;;;4984839;28;20058;-65
2022/04/19 14:35:43;;;;;;;2.10;1.90;;;;;;;;;;4983866;28;20061;-66
2022/04/19 14:38:10;;;;;;;3.05;2.30;;;;;;;;;;4979664;28;20046;-66
2022/04/19 14:40:36;;;;;;;2.40;2.17;;;;;;;;;;4980531;28;20058;-65
2022/04/19 14:43:03;;;;;;;3.80;2.50;;;;;;;;;;4980476;28;20054;-65
2022/04/19 14:45:30;;;;;;;2.25;2.03;;;;;;;;;;4981947;28;20057;-65
2022/04/19 14:47:57;;;;;;;3.25;2.75;;;;;;;;;;4986139;28;20586;-68
2022/04/19 14:50:23;;;;;;;3.42;2.30;;;;;;;;;;4983297;28;20129;-65
2022/04/19 14:52:50;;;;;;;2.53;2.05;;;;;;;;;;4980041;28;20055;-65
2022/04/19 14:55:20;;;;;;;3.00;2.15;;;;;;;;;;4981676;28;20081;-66
2022/04/19 14:57:47;;;;;;;3.92;2.40;;;;;;;;;;4981058;28;20050;-66
2022/04/19 15:00:14;;;;;;;2.88;2.15;;;;;;;;;;4979792;28;20052;-65
2022/04/19 15:02:41;;;;;;;2.55;2.35;;;;;;;;;;4981160;28;20571;-65
2022/04/19 15:05:08;;;;;;;5.50;3.08;;;;;;;;;;4979032;28;20494;-65
2022/04/19 15:07:36;;;;;;;2.58;2.25;;;;;;;;;;4981279;28;20051;-65
2022/04/19 15:10:04;;;;;;;4.50;2.20;;;;;;;;;;4978825;28;20549;-64
2022/04/19 15:12:52;;;;;;;2.53;2.00;;;;;;;;;;4981409;28;20130;-66
2022/04/19 15:15:20;;;;;;;2.05;1.77;;;;;;;;;;4988612;28;20048;-65
2022/04/19 15:17:49;;;;;;;11.80;3.92;;;;;;;;;;4989719;28;20077;-65
2022/04/19 15:20:16;;;;;;;4.78;2.00;;;;;;;;;;4988384;28;20054;-64
2022/04/19 15:22:43;;;;;;;3.45;2.20;;;;;;;;;;4988253;28;20136;-64
2022/04/19 15:25:10;;;;;;;2.35;2.03;;;;;;;;;;4988442;28;20129;-64
2022/04/19 15:27:37;;;;;;;1.98;1.58;;;;;;;;;;4988482;28;20050;-65
2022/04/19 15:30:05;;;;;;;2.45;1.60;;;;;;;;;;4986439;28;20517;-64
2022/04/19 15:32:32;;;;;;;5.15;2.10;;;;;;;;;;4985970;28;20112;-64
2022/04/19 15:34:58;;;;;;;2.17;1.60;;;;;;;;;;4987952;28;20452;-64
2022/04/19 15:37:26;;;;;;;2.90;2.00;;;;;;;;;;4984628;28;20054;-63
2022/04/19 15:39:53;;;;;;;2.65;1.92;;;;;;;;;;4979602;28;20042;-64
2022/04/19 15:42:20;;;;;;;2.17;1.80;;;;;;;;;;4980615;28;20042;-65
2022/04/19 15:44:47;;;;;;;4.07;1.90;;;;;;;;;;4977858;28;20524;-64
2022/04/19 15:47:14;;;;;;;3.55;2.08;;;;;;;;;;4980952;28;20053;-66
2022/04/19 15:49:41;;;;;;;2.13;1.90;;;;;;;;;;4981656;28;20390;-66
2022/04/19 15:52:08;;;;;;;4.30;2.00;;;;;;;;;;4983313;28;20086;-65
2022/04/19 15:54:34;;;;;;;3.17;1.88;;;;;;;;;;4993591;28;20101;-66